sensor_id;sensor_type;location;lat;lon;timestamp;P1;durP1;ratioP1;P2;durP2;ratioP2
52554;SDS011;38455;52.710;6.502;2023-04-06T00:01:09;9.93;;;6.20;;
52554;SDS011;38455;52.710;6.502;2023-04-06T00:03:35;10.15;;;6.55;;
52554;SDS011;38455;52.710;6.502;2023-04-06T00:06:01;9.55;;;5.55;;
52554;SDS011;38455;52.710;6.502;2023-04-06T00:08:27;8.88;;;5.50;;
52554;SDS011;38455;52.710;6.502;2023-04-06T00:10:53;9.73;;;5.22;;
52554;SDS011;38455;52.710;6.502;2023-04-06T00:13:19;10.43;;;5.90;;
52554;SDS011;38455;52.710;6.502;2023-04-06T00:15:45;7.15;;;5.72;;
52554;SDS011;38455;52.710;6.502;2023-04-06T00:18:11;8.80;;;6.10;;
52554;SDS011;38455;52.710;6.502;2023-04-06T00:20:36;10.38;;;6.38;;
52554;SDS011;38455;52.710;6.502;2023-04-06T00:23:02;10.88;;;6.00;;
52554;SDS011;38455;52.710;6.502;2023-04-06T00:25:28;9.80;;;6.53;;
52554;SDS011;38455;52.710;6.502;2023-04-06T00:27:54;7.35;;;5.25;;
52554;SDS011;38455;52.710;6.502;2023-04-06T00:30:19;13.05;;;7.03;;
52554;SDS011;38455;52.710;6.502;2023-04-06T00:32:45;10.15;;;5.22;;
52554;SDS011;38455;52.710;6.502;2023-04-06T00:35:11;8.15;;;5.40;;
52554;SDS011;38455;52.710;6.502;2023-04-06T00:37:36;9.30;;;5.60;;
52554;SDS011;38455;52.710;6.502;2023-04-06T00:40:02;11.05;;;5.78;;
52554;SDS011;38455;52.710;6.502;2023-04-06T00:42:28;9.13;;;5.68;;
52554;SDS011;38455;52.710;6.502;2023-04-06T00:44:54;8.85;;;5.40;;
52554;SDS011;38455;52.710;6.502;2023-04-06T00:47:21;9.15;;;5.50;;
52554;SDS011;38455;52.710;6.502;2023-04-06T00:49:50;13.43;;;6.95;;
52554;SDS011;38455;52.710;6.502;2023-04-06T00:52:17;8.82;;;5.90;;
52554;SDS011;38455;52.710;6.502;2023-04-06T00:54:43;8.73;;;6.22;;
52554;SDS011;38455;52.710;6.502;2023-04-06T00:57:11;9.73;;;5.95;;
52554;SDS011;38455;52.710;6.502;2023-04-06T00:59:37;11.15;;;6.90;;
52554;SDS011;38455;52.710;6.502;2023-04-06T01:02:03;14.57;;;5.57;;
52554;SDS011;38455;52.710;6.502;2023-04-06T01:04:29;8.77;;;5.82;;
52554;SDS011;38455;52.710;6.502;2023-04-06T01:06:55;10.82;;;5.90;;
52554;SDS011;38455;52.710;6.502;2023-04-06T01:09:20;11.57;;;5.75;;
52554;SDS011;38455;52.710;6.502;2023-04-06T01:11:46;9.05;;;5.90;;
52554;SDS011;38455;52.710;6.502;2023-04-06T01:14:12;9.88;;;5.50;;
52554;SDS011;38455;52.710;6.502;2023-04-06T01:16:38;8.82;;;6.07;;
52554;SDS011;38455;52.710;6.502;2023-04-06T01:19:07;12.15;;;5.43;;
52554;SDS011;38455;52.710;6.502;2023-04-06T01:21:34;9.13;;;5.70;;
52554;SDS011;38455;52.710;6.502;2023-04-06T01:24:01;9.27;;;5.68;;
52554;SDS011;38455;52.710;6.502;2023-04-06T01:26:26;11.85;;;5.45;;
52554;SDS011;38455;52.710;6.502;2023-04-06T01:28:54;12.10;;;6.10;;
52554;SDS011;38455;52.710;6.502;2023-04-06T01:31:20;9.40;;;6.03;;
52554;SDS011;38455;52.710;6.502;2023-04-06T01:33:46;10.45;;;6.55;;
52554;SDS011;38455;52.710;6.502;2023-04-06T01:36:12;8.43;;;5.43;;
52554;SDS011;38455;52.710;6.502;2023-04-06T01:38:37;9.55;;;6.05;;
52554;SDS011;38455;52.710;6.502;2023-04-06T01:41:03;8.57;;;5.53;;
52554;SDS011;38455;52.710;6.502;2023-04-06T01:43:28;11.13;;;6.38;;
52554;SDS011;38455;52.710;6.502;2023-04-06T01:45:54;10.65;;;6.30;;
52554;SDS011;38455;52.710;6.502;2023-04-06T01:48:20;11.65;;;5.93;;
52554;SDS011;38455;52.710;6.502;2023-04-06T01:50:46;8.73;;;6.20;;
52554;SDS011;38455;52.710;6.502;2023-04-06T01:53:11;13.85;;;6.43;;
52554;SDS011;38455;52.710;6.502;2023-04-06T01:55:37;12.02;;;6.63;;
52554;SDS011;38455;52.710;6.502;2023-04-06T01:58:03;12.57;;;7.65;;
52554;SDS011;38455;52.710;6.502;2023-04-06T02:00:28;11.80;;;5.38;;
52554;SDS011;38455;52.710;6.502;2023-04-06T02:02:54;9.88;;;5.95;;
52554;SDS011;38455;52.710;6.502;2023-04-06T02:05:20;14.35;;;7.18;;
52554;SDS011;38455;52.710;6.502;2023-04-06T02:07:45;10.63;;;5.72;;
52554;SDS011;38455;52.710;6.502;2023-04-06T02:10:12;10.77;;;6.53;;
52554;SDS011;38455;52.710;6.502;2023-04-06T02:12:40;13.52;;;6.28;;
52554;SDS011;38455;52.710;6.502;2023-04-06T02:15:06;10.45;;;6.40;;
52554;SDS011;38455;52.710;6.502;2023-04-06T02:17:32;10.70;;;5.95;;
52554;SDS011;38455;52.710;6.502;2023-04-06T02:19:57;11.15;;;6.32;;
52554;SDS011;38455;52.710;6.502;2023-04-06T02:22:23;12.30;;;6.30;;
52554;SDS011;38455;52.710;6.502;2023-04-06T02:24:49;10.70;;;6.60;;
52554;SDS011;38455;52.710;6.502;2023-04-06T02:27:14;13.80;;;7.70;;
52554;SDS011;38455;52.710;6.502;2023-04-06T02:29:40;11.60;;;7.07;;
52554;SDS011;38455;52.710;6.502;2023-04-06T02:32:06;13.73;;;8.65;;
52554;SDS011;38455;52.710;6.502;2023-04-06T02:34:31;17.63;;;9.52;;
52554;SDS011;38455;52.710;6.502;2023-04-06T02:36:57;16.75;;;8.85;;
52554;SDS011;38455;52.710;6.502;2023-04-06T02:39:22;14.85;;;9.50;;
52554;SDS011;38455;52.710;6.502;2023-04-06T02:41:48;16.33;;;10.32;;
52554;SDS011;38455;52.710;6.502;2023-04-06T02:44:14;16.40;;;10.43;;
52554;SDS011;38455;52.710;6.502;2023-04-06T02:46:40;17.83;;;10.93;;
52554;SDS011;38455;52.710;6.502;2023-04-06T02:49:05;16.95;;;11.00;;
52554;SDS011;38455;52.710;6.502;2023-04-06T02:51:31;18.80;;;13.13;;
52554;SDS011;38455;52.710;6.502;2023-04-06T02:53:57;17.98;;;12.65;;
52554;SDS011;38455;52.710;6.502;2023-04-06T02:56:23;20.15;;;13.35;;
52554;SDS011;38455;52.710;6.502;2023-04-06T02:58:49;21.17;;;14.18;;
52554;SDS011;38455;52.710;6.502;2023-04-06T03:01:15;22.77;;;13.80;;
52554;SDS011;38455;52.710;6.502;2023-04-06T03:03:41;19.67;;;13.63;;
52554;SDS011;38455;52.710;6.502;2023-04-06T03:06:07;22.30;;;13.85;;
52554;SDS011;38455;52.710;6.502;2023-04-06T03:08:32;24.25;;;13.38;;
52554;SDS011;38455;52.710;6.502;2023-04-06T03:10:58;22.02;;;13.15;;
52554;SDS011;38455;52.710;6.502;2023-04-06T03:13:24;21.33;;;13.32;;
52554;SDS011;38455;52.710;6.502;2023-04-06T03:15:49;23.38;;;13.43;;
52554;SDS011;38455;52.710;6.502;2023-04-06T03:18:15;19.02;;;11.90;;
52554;SDS011;38455;52.710;6.502;2023-04-06T03:20:40;18.92;;;11.90;;
52554;SDS011;38455;52.710;6.502;2023-04-06T03:23:06;21.98;;;12.20;;
52554;SDS011;38455;52.710;6.502;2023-04-06T03:25:32;25.75;;;12.30;;
52554;SDS011;38455;52.710;6.502;2023-04-06T03:27:58;16.75;;;11.63;;
52554;SDS011;38455;52.710;6.502;2023-04-06T03:30:23;18.58;;;11.00;;
52554;SDS011;38455;52.710;6.502;2023-04-06T03:32:49;16.58;;;11.57;;
52554;SDS011;38455;52.710;6.502;2023-04-06T03:35:15;20.33;;;11.52;;
52554;SDS011;38455;52.710;6.502;2023-04-06T03:37:40;17.50;;;11.70;;
52554;SDS011;38455;52.710;6.502;2023-04-06T03:40:06;17.00;;;10.35;;
52554;SDS011;38455;52.710;6.502;2023-04-06T03:42:32;17.48;;;10.30;;
52554;SDS011;38455;52.710;6.502;2023-04-06T03:45:00;19.27;;;10.38;;
52554;SDS011;38455;52.710;6.502;2023-04-06T03:47:26;19.05;;;10.38;;
52554;SDS011;38455;52.710;6.502;2023-04-06T03:49:52;15.20;;;8.70;;
52554;SDS011;38455;52.710;6.502;2023-04-06T03:52:17;14.73;;;8.35;;
52554;SDS011;38455;52.710;6.502;2023-04-06T03:54:43;13.20;;;8.25;;
52554;SDS011;38455;52.710;6.502;2023-04-06T03:57:08;14.52;;;8.80;;
52554;SDS011;38455;52.710;6.502;2023-04-06T03:59:34;16.15;;;9.18;;
52554;SDS011;38455;52.710;6.502;2023-04-06T04:02:00;12.10;;;7.78;;
52554;SDS011;38455;52.710;6.502;2023-04-06T04:04:25;14.55;;;8.02;;
52554;SDS011;38455;52.710;6.502;2023-04-06T04:06:51;11.30;;;7.53;;
52554;SDS011;38455;52.710;6.502;2023-04-06T04:09:17;17.63;;;8.55;;
52554;SDS011;38455;52.710;6.502;2023-04-06T04:11:42;17.05;;;8.50;;
52554;SDS011;38455;52.710;6.502;2023-04-06T04:14:08;10.70;;;7.47;;
52554;SDS011;38455;52.710;6.502;2023-04-06T04:16:33;13.10;;;8.77;;
52554;SDS011;38455;52.710;6.502;2023-04-06T04:18:59;15.40;;;7.32;;
52554;SDS011;38455;52.710;6.502;2023-04-06T04:21:25;19.33;;;8.10;;
52554;SDS011;38455;52.710;6.502;2023-04-06T04:23:51;13.35;;;7.65;;
52554;SDS011;38455;52.710;6.502;2023-04-06T04:26:17;11.45;;;8.02;;
52554;SDS011;38455;52.710;6.502;2023-04-06T04:28:43;11.65;;;7.43;;
52554;SDS011;38455;52.710;6.502;2023-04-06T04:31:09;14.70;;;8.00;;
52554;SDS011;38455;52.710;6.502;2023-04-06T04:33:35;10.57;;;7.50;;
52554;SDS011;38455;52.710;6.502;2023-04-06T04:36:01;12.43;;;8.40;;
52554;SDS011;38455;52.710;6.502;2023-04-06T04:38:26;11.10;;;8.02;;
52554;SDS011;38455;52.710;6.502;2023-04-06T04:40:52;14.23;;;8.27;;
52554;SDS011;38455;52.710;6.502;2023-04-06T04:43:18;13.13;;;8.43;;
52554;SDS011;38455;52.710;6.502;2023-04-06T04:45:43;14.02;;;8.15;;
52554;SDS011;38455;52.710;6.502;2023-04-06T04:48:09;11.15;;;8.00;;
52554;SDS011;38455;52.710;6.502;2023-04-06T04:50:35;18.02;;;8.77;;
52554;SDS011;38455;52.710;6.502;2023-04-06T04:53:00;14.38;;;9.07;;
52554;SDS011;38455;52.710;6.502;2023-04-06T04:55:26;11.65;;;8.20;;
52554;SDS011;38455;52.710;6.502;2023-04-06T04:57:52;17.38;;;8.43;;
52554;SDS011;38455;52.710;6.502;2023-04-06T05:00:18;13.43;;;8.30;;
52554;SDS011;38455;52.710;6.502;2023-04-06T05:02:44;15.32;;;8.32;;
52554;SDS011;38455;52.710;6.502;2023-04-06T05:05:10;13.35;;;8.77;;
52554;SDS011;38455;52.710;6.502;2023-04-06T05:07:36;10.68;;;7.35;;
52554;SDS011;38455;52.710;6.502;2023-04-06T05:10:01;15.32;;;7.45;;
52554;SDS011;38455;52.710;6.502;2023-04-06T05:12:27;14.70;;;8.55;;
52554;SDS011;38455;52.710;6.502;2023-04-06T05:14:53;13.70;;;8.40;;
52554;SDS011;38455;52.710;6.502;2023-04-06T05:17:19;17.45;;;8.77;;
52554;SDS011;38455;52.710;6.502;2023-04-06T05:19:45;12.13;;;8.07;;
52554;SDS011;38455;52.710;6.502;2023-04-06T05:22:11;15.55;;;8.32;;
52554;SDS011;38455;52.710;6.502;2023-04-06T05:24:39;12.70;;;8.20;;
52554;SDS011;38455;52.710;6.502;2023-04-06T05:27:05;11.27;;;8.07;;
52554;SDS011;38455;52.710;6.502;2023-04-06T05:29:31;13.05;;;8.05;;
52554;SDS011;38455;52.710;6.502;2023-04-06T05:31:57;13.85;;;8.30;;
52554;SDS011;38455;52.710;6.502;2023-04-06T05:34:22;15.13;;;8.13;;
52554;SDS011;38455;52.710;6.502;2023-04-06T05:36:48;11.10;;;7.70;;
52554;SDS011;38455;52.710;6.502;2023-04-06T05:39:14;14.27;;;7.85;;
52554;SDS011;38455;52.710;6.502;2023-04-06T05:41:40;21.67;;;15.05;;
52554;SDS011;38455;52.710;6.502;2023-04-06T05:44:06;19.08;;;13.32;;
52554;SDS011;38455;52.710;6.502;2023-04-06T05:46:32;33.28;;;18.65;;
52554;SDS011;38455;52.710;6.502;2023-04-06T05:48:57;25.77;;;16.20;;
52554;SDS011;38455;52.710;6.502;2023-04-06T05:51:23;16.10;;;9.00;;
52554;SDS011;38455;52.710;6.502;2023-04-06T05:53:50;13.10;;;8.25;;
52554;SDS011;38455;52.710;6.502;2023-04-06T05:56:15;13.73;;;8.27;;
52554;SDS011;38455;52.710;6.502;2023-04-06T05:58:41;13.30;;;8.45;;
52554;SDS011;38455;52.710;6.502;2023-04-06T06:01:07;14.65;;;8.55;;
52554;SDS011;38455;52.710;6.502;2023-04-06T06:03:34;13.82;;;7.90;;
52554;SDS011;38455;52.710;6.502;2023-04-06T06:06:00;12.85;;;7.40;;
52554;SDS011;38455;52.710;6.502;2023-04-06T06:08:26;10.20;;;7.03;;
52554;SDS011;38455;52.710;6.502;2023-04-06T06:10:52;12.68;;;8.18;;
52554;SDS011;38455;52.710;6.502;2023-04-06T06:13:18;9.30;;;6.93;;
52554;SDS011;38455;52.710;6.502;2023-04-06T06:15:44;11.55;;;7.30;;
52554;SDS011;38455;52.710;6.502;2023-04-06T06:18:09;13.63;;;8.00;;
52554;SDS011;38455;52.710;6.502;2023-04-06T06:20:35;13.80;;;7.65;;
52554;SDS011;38455;52.710;6.502;2023-04-06T06:23:01;13.40;;;7.80;;
52554;SDS011;38455;52.710;6.502;2023-04-06T06:25:27;12.20;;;7.15;;
52554;SDS011;38455;52.710;6.502;2023-04-06T06:27:55;12.02;;;7.60;;
52554;SDS011;38455;52.710;6.502;2023-04-06T06:30:21;16.20;;;7.65;;
52554;SDS011;38455;52.710;6.502;2023-04-06T06:32:47;13.35;;;7.65;;
52554;SDS011;38455;52.710;6.502;2023-04-06T06:35:12;8.80;;;7.05;;
52554;SDS011;38455;52.710;6.502;2023-04-06T06:37:38;10.95;;;7.85;;
52554;SDS011;38455;52.710;6.502;2023-04-06T06:40:04;15.23;;;8.35;;
52554;SDS011;38455;52.710;6.502;2023-04-06T06:42:30;14.68;;;7.47;;
52554;SDS011;38455;52.710;6.502;2023-04-06T06:44:56;13.30;;;8.35;;
52554;SDS011;38455;52.710;6.502;2023-04-06T06:47:21;13.70;;;7.65;;
52554;SDS011;38455;52.710;6.502;2023-04-06T06:49:47;10.65;;;7.53;;
52554;SDS011;38455;52.710;6.502;2023-04-06T06:52:13;13.15;;;8.07;;
52554;SDS011;38455;52.710;6.502;2023-04-06T06:54:38;10.70;;;7.70;;
52554;SDS011;38455;52.710;6.502;2023-04-06T06:57:04;13.50;;;8.48;;
52554;SDS011;38455;52.710;6.502;2023-04-06T06:59:30;11.15;;;7.10;;
52554;SDS011;38455;52.710;6.502;2023-04-06T07:01:55;11.55;;;7.45;;
52554;SDS011;38455;52.710;6.502;2023-04-06T07:04:21;15.32;;;7.97;;
52554;SDS011;38455;52.710;6.502;2023-04-06T07:06:46;11.38;;;7.63;;
52554;SDS011;38455;52.710;6.502;2023-04-06T07:09:12;14.25;;;8.45;;
52554;SDS011;38455;52.710;6.502;2023-04-06T07:11:38;10.05;;;7.50;;
52554;SDS011;38455;52.710;6.502;2023-04-06T07:14:03;12.07;;;7.88;;
52554;SDS011;38455;52.710;6.502;2023-04-06T07:16:29;11.77;;;8.07;;
52554;SDS011;38455;52.710;6.502;2023-04-06T07:18:55;13.82;;;8.00;;
52554;SDS011;38455;52.710;6.502;2023-04-06T07:21:21;14.77;;;8.15;;
52554;SDS011;38455;52.710;6.502;2023-04-06T07:23:46;13.13;;;8.73;;
52554;SDS011;38455;52.710;6.502;2023-04-06T07:26:13;11.70;;;8.45;;
52554;SDS011;38455;52.710;6.502;2023-04-06T07:28:38;13.20;;;8.35;;
52554;SDS011;38455;52.710;6.502;2023-04-06T07:31:04;12.60;;;8.60;;
52554;SDS011;38455;52.710;6.502;2023-04-06T07:33:30;16.88;;;9.15;;
52554;SDS011;38455;52.710;6.502;2023-04-06T07:35:56;14.32;;;8.50;;
52554;SDS011;38455;52.710;6.502;2023-04-06T07:38:23;15.98;;;9.48;;
52554;SDS011;38455;52.710;6.502;2023-04-06T07:40:49;12.20;;;8.77;;
52554;SDS011;38455;52.710;6.502;2023-04-06T07:43:15;15.10;;;8.77;;
52554;SDS011;38455;52.710;6.502;2023-04-06T07:45:41;11.13;;;8.07;;
52554;SDS011;38455;52.710;6.502;2023-04-06T07:48:06;13.70;;;8.05;;
52554;SDS011;38455;52.710;6.502;2023-04-06T07:50:32;12.82;;;8.57;;
52554;SDS011;38455;52.710;6.502;2023-04-06T07:52:58;18.05;;;9.35;;
52554;SDS011;38455;52.710;6.502;2023-04-06T07:55:24;11.52;;;8.38;;
52554;SDS011;38455;52.710;6.502;2023-04-06T07:57:50;13.63;;;8.88;;
52554;SDS011;38455;52.710;6.502;2023-04-06T08:00:16;12.18;;;9.10;;
52554;SDS011;38455;52.710;6.502;2023-04-06T08:02:42;15.80;;;9.73;;
52554;SDS011;38455;52.710;6.502;2023-04-06T08:05:08;15.43;;;9.73;;
52554;SDS011;38455;52.710;6.502;2023-04-06T08:07:34;15.57;;;9.52;;
52554;SDS011;38455;52.710;6.502;2023-04-06T08:10:00;16.17;;;9.07;;
52554;SDS011;38455;52.710;6.502;2023-04-06T08:12:26;12.93;;;8.90;;
52554;SDS011;38455;52.710;6.502;2023-04-06T08:14:52;15.65;;;10.23;;
52554;SDS011;38455;52.710;6.502;2023-04-06T08:17:18;12.52;;;9.32;;
52554;SDS011;38455;52.710;6.502;2023-04-06T08:19:43;14.73;;;9.52;;
52554;SDS011;38455;52.710;6.502;2023-04-06T08:22:10;12.25;;;8.80;;
52554;SDS011;38455;52.710;6.502;2023-04-06T08:24:36;14.63;;;10.80;;
52554;SDS011;38455;52.710;6.502;2023-04-06T08:27:02;16.67;;;9.25;;
52554;SDS011;38455;52.710;6.502;2023-04-06T08:29:28;14.25;;;9.65;;
52554;SDS011;38455;52.710;6.502;2023-04-06T08:31:53;15.25;;;9.23;;
52554;SDS011;38455;52.710;6.502;2023-04-06T08:34:19;17.17;;;10.35;;
52554;SDS011;38455;52.710;6.502;2023-04-06T08:36:46;13.40;;;9.48;;
52554;SDS011;38455;52.710;6.502;2023-04-06T08:39:11;16.35;;;9.43;;
52554;SDS011;38455;52.710;6.502;2023-04-06T08:41:37;16.42;;;10.35;;
52554;SDS011;38455;52.710;6.502;2023-04-06T08:44:03;17.95;;;9.50;;
52554;SDS011;38455;52.710;6.502;2023-04-06T08:46:30;15.95;;;10.63;;
52554;SDS011;38455;52.710;6.502;2023-04-06T08:48:56;20.10;;;11.35;;
52554;SDS011;38455;52.710;6.502;2023-04-06T08:51:23;15.82;;;10.60;;
52554;SDS011;38455;52.710;6.502;2023-04-06T08:53:51;15.43;;;10.75;;
52554;SDS011;38455;52.710;6.502;2023-04-06T08:56:19;16.30;;;10.88;;
52554;SDS011;38455;52.710;6.502;2023-04-06T08:58:46;19.77;;;10.50;;
52554;SDS011;38455;52.710;6.502;2023-04-06T09:01:13;15.70;;;10.57;;
52554;SDS011;38455;52.710;6.502;2023-04-06T09:03:41;15.60;;;11.65;;
52554;SDS011;38455;52.710;6.502;2023-04-06T09:06:08;16.92;;;10.88;;
52554;SDS011;38455;52.710;6.502;2023-04-06T09:08:35;17.77;;;11.43;;
52554;SDS011;38455;52.710;6.502;2023-04-06T09:11:03;20.23;;;11.88;;
52554;SDS011;38455;52.710;6.502;2023-04-06T09:13:29;28.05;;;12.35;;
52554;SDS011;38455;52.710;6.502;2023-04-06T09:16:02;16.88;;;10.50;;
52554;SDS011;38455;52.710;6.502;2023-04-06T09:18:30;16.60;;;12.07;;
52554;SDS011;38455;52.710;6.502;2023-04-06T09:21:03;16.90;;;11.25;;
52554;SDS011;38455;52.710;6.502;2023-04-06T09:23:30;21.38;;;11.65;;
52554;SDS011;38455;52.710;6.502;2023-04-06T09:26:09;18.92;;;11.60;;
52554;SDS011;38455;52.710;6.502;2023-04-06T09:31:16;16.23;;;11.38;;
52554;SDS011;38455;52.710;6.502;2023-04-06T09:33:46;19.05;;;12.10;;
52554;SDS011;38455;52.710;6.502;2023-04-06T09:36:12;17.25;;;11.32;;
52554;SDS011;38455;52.710;6.502;2023-04-06T09:38:53;17.30;;;12.40;;
52554;SDS011;38455;52.710;6.502;2023-04-06T09:41:24;18.65;;;13.15;;
52554;SDS011;38455;52.710;6.502;2023-04-06T09:46:30;20.00;;;13.25;;
52554;SDS011;38455;52.710;6.502;2023-04-06T09:48:58;17.23;;;12.25;;
52554;SDS011;38455;52.710;6.502;2023-04-06T09:51:31;19.23;;;12.88;;
52554;SDS011;38455;52.710;6.502;2023-04-06T09:54:05;18.42;;;12.93;;
52554;SDS011;38455;52.710;6.502;2023-04-06T09:59:45;19.88;;;13.45;;
52554;SDS011;38455;52.710;6.502;2023-04-06T10:02:34;19.13;;;12.57;;
52554;SDS011;38455;52.710;6.502;2023-04-06T10:05:12;19.60;;;13.23;;
52554;SDS011;38455;52.710;6.502;2023-04-06T10:07:56;21.73;;;13.70;;
52554;SDS011;38455;52.710;6.502;2023-04-06T10:10:25;21.52;;;14.18;;
52554;SDS011;38455;52.710;6.502;2023-04-06T10:12:52;25.92;;;14.20;;
52554;SDS011;38455;52.710;6.502;2023-04-06T10:15:18;22.10;;;14.25;;
52554;SDS011;38455;52.710;6.502;2023-04-06T10:17:44;21.10;;;14.32;;
52554;SDS011;38455;52.710;6.502;2023-04-06T10:20:11;24.00;;;13.52;;
52554;SDS011;38455;52.710;6.502;2023-04-06T10:22:49;26.25;;;15.60;;
52554;SDS011;38455;52.710;6.502;2023-04-06T10:25:35;22.63;;;13.93;;
52554;SDS011;38455;52.710;6.502;2023-04-06T10:28:04;19.98;;;13.98;;
52554;SDS011;38455;52.710;6.502;2023-04-06T10:30:31;24.92;;;15.52;;
52554;SDS011;38455;52.710;6.502;2023-04-06T10:32:58;23.52;;;14.63;;
52554;SDS011;38455;52.710;6.502;2023-04-06T10:35:24;22.75;;;14.00;;
52554;SDS011;38455;52.710;6.502;2023-04-06T10:38:01;24.17;;;15.52;;
52554;SDS011;38455;52.710;6.502;2023-04-06T10:40:28;24.02;;;16.10;;
52554;SDS011;38455;52.710;6.502;2023-04-06T10:43:06;25.50;;;15.75;;
52554;SDS011;38455;52.710;6.502;2023-04-06T10:45:36;23.02;;;15.95;;
52554;SDS011;38455;52.710;6.502;2023-04-06T10:48:12;23.63;;;16.17;;
52554;SDS011;38455;52.710;6.502;2023-04-06T10:50:43;27.60;;;16.65;;
52554;SDS011;38455;52.710;6.502;2023-04-06T10:53:10;22.23;;;15.68;;
52554;SDS011;38455;52.710;6.502;2023-04-06T10:55:37;24.83;;;16.45;;
52554;SDS011;38455;52.710;6.502;2023-04-06T10:58:06;24.75;;;16.52;;
52554;SDS011;38455;52.710;6.502;2023-04-06T11:00:32;23.15;;;15.95;;
52554;SDS011;38455;52.710;6.502;2023-04-06T11:02:59;25.02;;;17.35;;
52554;SDS011;38455;52.710;6.502;2023-04-06T11:05:26;24.90;;;17.50;;
52554;SDS011;38455;52.710;6.502;2023-04-06T11:07:51;27.92;;;17.42;;
52554;SDS011;38455;52.710;6.502;2023-04-06T11:10:21;26.45;;;18.20;;
52554;SDS011;38455;52.710;6.502;2023-04-06T11:12:52;29.45;;;16.90;;
52554;SDS011;38455;52.710;6.502;2023-04-06T11:15:21;30.70;;;17.30;;
52554;SDS011;38455;52.710;6.502;2023-04-06T11:17:48;26.83;;;16.52;;
52554;SDS011;38455;52.710;6.502;2023-04-06T11:20:14;29.63;;;17.35;;
52554;SDS011;38455;52.710;6.502;2023-04-06T11:22:52;26.98;;;17.90;;
52554;SDS011;38455;52.710;6.502;2023-04-06T11:25:18;27.48;;;16.75;;
52554;SDS011;38455;52.710;6.502;2023-04-06T11:27:45;29.40;;;16.85;;
52554;SDS011;38455;52.710;6.502;2023-04-06T11:30:11;28.25;;;17.48;;
52554;SDS011;38455;52.710;6.502;2023-04-06T11:32:41;27.33;;;17.20;;
52554;SDS011;38455;52.710;6.502;2023-04-06T11:35:13;28.65;;;18.63;;
52554;SDS011;38455;52.710;6.502;2023-04-06T11:37:45;24.73;;;16.83;;
52554;SDS011;38455;52.710;6.502;2023-04-06T11:40:11;28.02;;;17.67;;
52554;SDS011;38455;52.710;6.502;2023-04-06T11:42:36;29.25;;;18.55;;
52554;SDS011;38455;52.710;6.502;2023-04-06T11:45:02;26.63;;;17.13;;
52554;SDS011;38455;52.710;6.502;2023-04-06T11:47:29;25.30;;;17.30;;
52554;SDS011;38455;52.710;6.502;2023-04-06T11:50:05;30.02;;;17.42;;
52554;SDS011;38455;52.710;6.502;2023-04-06T11:52:35;25.23;;;16.50;;
52554;SDS011;38455;52.710;6.502;2023-04-06T11:55:22;25.83;;;16.10;;
52554;SDS011;38455;52.710;6.502;2023-04-06T11:57:47;27.55;;;17.85;;
52554;SDS011;38455;52.710;6.502;2023-04-06T12:00:14;25.88;;;18.20;;
52554;SDS011;38455;52.710;6.502;2023-04-06T12:02:45;27.45;;;17.63;;
52554;SDS011;38455;52.710;6.502;2023-04-06T12:05:11;25.42;;;16.63;;
52554;SDS011;38455;52.710;6.502;2023-04-06T12:07:36;24.27;;;15.90;;
52554;SDS011;38455;52.710;6.502;2023-04-06T12:10:02;26.33;;;17.65;;
52554;SDS011;38455;52.710;6.502;2023-04-06T12:12:28;27.85;;;16.08;;
52554;SDS011;38455;52.710;6.502;2023-04-06T12:14:55;24.58;;;16.52;;
52554;SDS011;38455;52.710;6.502;2023-04-06T12:17:21;28.42;;;16.95;;
52554;SDS011;38455;52.710;6.502;2023-04-06T12:19:46;29.95;;;16.80;;
52554;SDS011;38455;52.710;6.502;2023-04-06T12:22:12;26.08;;;16.20;;
52554;SDS011;38455;52.710;6.502;2023-04-06T12:24:38;29.58;;;17.15;;
52554;SDS011;38455;52.710;6.502;2023-04-06T12:27:04;28.00;;;17.80;;
52554;SDS011;38455;52.710;6.502;2023-04-06T12:29:29;27.05;;;17.15;;
52554;SDS011;38455;52.710;6.502;2023-04-06T12:31:55;28.60;;;18.08;;
52554;SDS011;38455;52.710;6.502;2023-04-06T12:34:21;25.50;;;16.40;;
52554;SDS011;38455;52.710;6.502;2023-04-06T12:36:46;23.38;;;15.73;;
52554;SDS011;38455;52.710;6.502;2023-04-06T12:39:12;28.48;;;17.15;;
52554;SDS011;38455;52.710;6.502;2023-04-06T12:41:38;28.50;;;16.73;;
52554;SDS011;38455;52.710;6.502;2023-04-06T12:44:07;29.75;;;15.85;;
52554;SDS011;38455;52.710;6.502;2023-04-06T12:46:32;22.42;;;15.18;;
52554;SDS011;38455;52.710;6.502;2023-04-06T12:48:58;21.63;;;14.30;;
52554;SDS011;38455;52.710;6.502;2023-04-06T12:51:26;24.05;;;15.05;;
52554;SDS011;38455;52.710;6.502;2023-04-06T12:53:52;21.70;;;14.60;;
52554;SDS011;38455;52.710;6.502;2023-04-06T12:56:18;22.88;;;13.80;;
52554;SDS011;38455;52.710;6.502;2023-04-06T12:58:46;34.20;;;12.85;;
52554;SDS011;38455;52.710;6.502;2023-04-06T13:01:12;24.40;;;13.90;;
52554;SDS011;38455;52.710;6.502;2023-04-06T13:03:38;18.63;;;11.38;;
52554;SDS011;38455;52.710;6.502;2023-04-06T13:06:04;18.08;;;10.25;;
52554;SDS011;38455;52.710;6.502;2023-04-06T13:08:30;17.67;;;11.55;;
52554;SDS011;38455;52.710;6.502;2023-04-06T13:10:56;19.20;;;11.07;;
52554;SDS011;38455;52.710;6.502;2023-04-06T13:13:25;17.35;;;11.63;;
52554;SDS011;38455;52.710;6.502;2023-04-06T13:15:58;16.90;;;11.77;;
52554;SDS011;38455;52.710;6.502;2023-04-06T13:18:26;17.42;;;10.50;;
52554;SDS011;38455;52.710;6.502;2023-04-06T13:20:52;17.27;;;10.52;;
52554;SDS011;38455;52.710;6.502;2023-04-06T13:23:18;14.23;;;9.30;;
52554;SDS011;38455;52.710;6.502;2023-04-06T13:25:43;13.90;;;8.80;;
52554;SDS011;38455;52.710;6.502;2023-04-06T13:28:09;16.30;;;10.60;;
52554;SDS011;38455;52.710;6.502;2023-04-06T13:30:35;18.20;;;10.30;;
52554;SDS011;38455;52.710;6.502;2023-04-06T13:33:01;15.32;;;10.10;;
52554;SDS011;38455;52.710;6.502;2023-04-06T13:35:27;18.73;;;11.13;;
52554;SDS011;38455;52.710;6.502;2023-04-06T13:37:52;21.50;;;10.70;;
52554;SDS011;38455;52.710;6.502;2023-04-06T13:40:18;18.65;;;10.35;;
52554;SDS011;38455;52.710;6.502;2023-04-06T13:42:44;16.85;;;10.77;;
52554;SDS011;38455;52.710;6.502;2023-04-06T13:45:11;15.25;;;9.48;;
52554;SDS011;38455;52.710;6.502;2023-04-06T13:47:37;17.45;;;10.90;;
52554;SDS011;38455;52.710;6.502;2023-04-06T13:50:03;17.42;;;11.82;;
52554;SDS011;38455;52.710;6.502;2023-04-06T13:52:29;16.95;;;10.18;;
52554;SDS011;38455;52.710;6.502;2023-04-06T13:54:54;17.17;;;10.77;;
52554;SDS011;38455;52.710;6.502;2023-04-06T13:57:20;19.50;;;11.55;;
52554;SDS011;38455;52.710;6.502;2023-04-06T13:59:46;21.60;;;11.85;;
52554;SDS011;38455;52.710;6.502;2023-04-06T14:02:12;17.67;;;11.82;;
52554;SDS011;38455;52.710;6.502;2023-04-06T14:04:37;19.90;;;12.57;;
52554;SDS011;38455;52.710;6.502;2023-04-06T14:07:03;17.80;;;11.60;;
52554;SDS011;38455;52.710;6.502;2023-04-06T14:09:32;19.83;;;11.82;;
52554;SDS011;38455;52.710;6.502;2023-04-06T14:11:58;17.58;;;11.27;;
52554;SDS011;38455;52.710;6.502;2023-04-06T14:14:24;18.50;;;11.25;;
52554;SDS011;38455;52.710;6.502;2023-04-06T14:16:51;15.73;;;10.30;;
52554;SDS011;38455;52.710;6.502;2023-04-06T14:19:16;16.10;;;10.48;;
52554;SDS011;38455;52.710;6.502;2023-04-06T14:21:43;14.57;;;10.25;;
52554;SDS011;38455;52.710;6.502;2023-04-06T14:24:10;17.48;;;10.88;;
52554;SDS011;38455;52.710;6.502;2023-04-06T14:26:36;15.32;;;10.02;;
52554;SDS011;38455;52.710;6.502;2023-04-06T14:29:02;16.05;;;10.40;;
52554;SDS011;38455;52.710;6.502;2023-04-06T14:31:29;17.27;;;10.52;;
52554;SDS011;38455;52.710;6.502;2023-04-06T14:33:55;17.00;;;10.02;;